sensor_id;sensor_type;location;lat;lon;timestamp;temperature;humidity
47546;DHT22;50104;52.002;4.688;2023-03-01T00:04:43;2.00;76.40
47546;DHT22;50104;52.002;4.688;2023-03-01T00:09:44;1.90;76.60
47546;DHT22;50104;52.002;4.688;2023-03-01T00:14:46;1.80;76.30
47546;DHT22;50104;52.002;4.688;2023-03-01T00:19:47;1.80;76.40
47546;DHT22;50104;52.002;4.688;2023-03-01T00:24:47;1.70;76.20
47546;DHT22;50104;52.002;4.688;2023-03-01T00:29:48;1.60;76.20
47546;DHT22;50104;52.002;4.688;2023-03-01T00:34:49;1.60;76.20
47546;DHT22;50104;52.002;4.688;2023-03-01T00:40:13;1.50;76.20
47546;DHT22;50104;52.002;4.688;2023-03-01T00:45:17;1.40;76.40
47546;DHT22;50104;52.002;4.688;2023-03-01T00:50:18;1.30;76.80
47546;DHT22;50104;52.002;4.688;2023-03-01T00:55:19;1.30;76.80
47546;DHT22;50104;52.002;4.688;2023-03-01T01:00:20;1.30;76.70
47546;DHT22;50104;52.002;4.688;2023-03-01T01:05:22;1.20;76.90
47546;DHT22;50104;52.002;4.688;2023-03-01T01:10:23;1.20;77.10
47546;DHT22;50104;52.002;4.688;2023-03-01T01:15:24;1.10;77.30
47546;DHT22;50104;52.002;4.688;2023-03-01T01:20:25;1.10;77.10
47546;DHT22;50104;52.002;4.688;2023-03-01T01:25:25;1.10;77.10
47546;DHT22;50104;52.002;4.688;2023-03-01T01:30:26;1.00;77.10
47546;DHT22;50104;52.002;4.688;2023-03-01T01:35:27;1.00;77.00
47546;DHT22;50104;52.002;4.688;2023-03-01T01:40:28;0.90;77.10
47546;DHT22;50104;52.002;4.688;2023-03-01T01:45:33;0.90;77.10
47546;DHT22;50104;52.002;4.688;2023-03-01T01:50:36;0.90;77.20
47546;DHT22;50104;52.002;4.688;2023-03-01T01:55:43;0.80;77.20
47546;DHT22;50104;52.002;4.688;2023-03-01T02:00:54;0.80;77.20
47546;DHT22;50104;52.002;4.688;2023-03-01T02:06:04;0.70;77.20
47546;DHT22;50104;52.002;4.688;2023-03-01T02:11:08;0.60;77.30
47546;DHT22;50104;52.002;4.688;2023-03-01T02:16:13;0.60;77.30
47546;DHT22;50104;52.002;4.688;2023-03-01T02:26:50;0.50;77.40
47546;DHT22;50104;52.002;4.688;2023-03-01T02:31:54;0.50;77.30
47546;DHT22;50104;52.002;4.688;2023-03-01T02:37:02;0.40;77.50
47546;DHT22;50104;52.002;4.688;2023-03-01T02:42:05;0.40;77.50
47546;DHT22;50104;52.002;4.688;2023-03-01T02:47:06;0.30;77.60
47546;DHT22;50104;52.002;4.688;2023-03-01T02:52:44;0.30;77.60
47546;DHT22;50104;52.002;4.688;2023-03-01T02:57:48;0.20;77.60
47546;DHT22;50104;52.002;4.688;2023-03-01T03:02:53;0.20;77.60
47546;DHT22;50104;52.002;4.688;2023-03-01T03:07:55;0.20;77.70
47546;DHT22;50104;52.002;4.688;2023-03-01T03:13:03;0.10;77.70
47546;DHT22;50104;52.002;4.688;2023-03-01T03:18:09;0.10;77.70
47546;DHT22;50104;52.002;4.688;2023-03-01T03:23:11;0.10;77.70
47546;DHT22;50104;52.002;4.688;2023-03-01T03:28:12;0.00;77.70
47546;DHT22;50104;52.002;4.688;2023-03-01T03:33:13;0.00;77.90
47546;DHT22;50104;52.002;4.688;2023-03-01T03:38:16;-0.10;77.90
47546;DHT22;50104;52.002;4.688;2023-03-01T03:43:22;-0.10;77.90
47546;DHT22;50104;52.002;4.688;2023-03-01T03:48:23;-0.20;77.80
47546;DHT22;50104;52.002;4.688;2023-03-01T03:53:26;-0.20;77.90
47546;DHT22;50104;52.002;4.688;2023-03-01T03:58:28;-0.20;77.90
47546;DHT22;50104;52.002;4.688;2023-03-01T04:03:30;-0.30;77.80
47546;DHT22;50104;52.002;4.688;2023-03-01T04:08:32;-0.30;77.90
47546;DHT22;50104;52.002;4.688;2023-03-01T04:13:33;-0.40;77.90
47546;DHT22;50104;52.002;4.688;2023-03-01T04:18:34;-0.40;77.90
47546;DHT22;50104;52.002;4.688;2023-03-01T04:23:35;-0.50;77.90
47546;DHT22;50104;52.002;4.688;2023-03-01T04:28:39;-0.50;77.90
47546;DHT22;50104;52.002;4.688;2023-03-01T04:33:51;-0.60;77.90
47546;DHT22;50104;52.002;4.688;2023-03-01T04:38:54;-0.60;77.90
47546;DHT22;50104;52.002;4.688;2023-03-01T04:43:55;-0.70;77.90
47546;DHT22;50104;52.002;4.688;2023-03-01T04:48:56;-0.70;78.00
47546;DHT22;50104;52.002;4.688;2023-03-01T04:53:57;-0.80;78.00
47546;DHT22;50104;52.002;4.688;2023-03-01T04:58:57;-0.80;77.90
47546;DHT22;50104;52.002;4.688;2023-03-01T05:03:58;-0.80;77.80
47546;DHT22;50104;52.002;4.688;2023-03-01T05:09:03;-0.90;77.90
47546;DHT22;50104;52.002;4.688;2023-03-01T05:14:07;-0.90;78.00
47546;DHT22;50104;52.002;4.688;2023-03-01T05:19:09;-0.90;78.00
47546;DHT22;50104;52.002;4.688;2023-03-01T05:24:15;-1.00;78.00
47546;DHT22;50104;52.002;4.688;2023-03-01T05:29:16;-1.00;78.00
47546;DHT22;50104;52.002;4.688;2023-03-01T05:34:17;-1.10;78.10
47546;DHT22;50104;52.002;4.688;2023-03-01T05:39:22;-1.10;78.30
47546;DHT22;50104;52.002;4.688;2023-03-01T05:44:24;-1.10;78.30
47546;DHT22;50104;52.002;4.688;2023-03-01T05:49:25;-1.20;78.40
47546;DHT22;50104;52.002;4.688;2023-03-01T05:54:26;-1.20;78.40
47546;DHT22;50104;52.002;4.688;2023-03-01T05:59:27;-1.20;78.50
47546;DHT22;50104;52.002;4.688;2023-03-01T06:04:28;-1.20;78.50
47546;DHT22;50104;52.002;4.688;2023-03-01T06:09:28;-1.30;78.60
47546;DHT22;50104;52.002;4.688;2023-03-01T06:14:29;-1.30;78.60
47546;DHT22;50104;52.002;4.688;2023-03-01T06:19:30;-1.30;78.70
47546;DHT22;50104;52.002;4.688;2023-03-01T06:24:31;-1.30;78.60
47546;DHT22;50104;52.002;4.688;2023-03-01T06:29:32;-1.30;78.60
47546;DHT22;50104;52.002;4.688;2023-03-01T06:34:33;-1.30;78.60
47546;DHT22;50104;52.002;4.688;2023-03-01T06:39:34;-1.30;78.60
47546;DHT22;50104;52.002;4.688;2023-03-01T06:44:37;-1.40;78.50
47546;DHT22;50104;52.002;4.688;2023-03-01T06:49:37;-1.40;78.40
47546;DHT22;50104;52.002;4.688;2023-03-01T06:54:40;-1.50;78.50
47546;DHT22;50104;52.002;4.688;2023-03-01T06:59:41;-1.50;78.60
47546;DHT22;50104;52.002;4.688;2023-03-01T07:04:42;-1.50;78.70
47546;DHT22;50104;52.002;4.688;2023-03-01T07:09:44;-1.60;78.80
47546;DHT22;50104;52.002;4.688;2023-03-01T07:14:45;-1.60;79.00
47546;DHT22;50104;52.002;4.688;2023-03-01T07:19:46;-1.60;79.20
47546;DHT22;50104;52.002;4.688;2023-03-01T07:24:47;-1.50;79.20
47546;DHT22;50104;52.002;4.688;2023-03-01T07:29:48;-1.50;79.30
47546;DHT22;50104;52.002;4.688;2023-03-01T07:34:48;-1.50;79.40
47546;DHT22;50104;52.002;4.688;2023-03-01T07:39:49;-1.50;79.60
47546;DHT22;50104;52.002;4.688;2023-03-01T07:44:50;-1.40;79.80
47546;DHT22;50104;52.002;4.688;2023-03-01T07:49:51;-1.30;79.80
47546;DHT22;50104;52.002;4.688;2023-03-01T07:54:52;-1.20;79.90
47546;DHT22;50104;52.002;4.688;2023-03-01T07:59:53;-1.10;80.20
47546;DHT22;50104;52.002;4.688;2023-03-01T08:04:54;-0.90;80.40
47546;DHT22;50104;52.002;4.688;2023-03-01T08:09:54;-0.80;80.60
47546;DHT22;50104;52.002;4.688;2023-03-01T08:14:55;-0.60;80.80
47546;DHT22;50104;52.002;4.688;2023-03-01T08:19:57;-0.40;81.00
47546;DHT22;50104;52.002;4.688;2023-03-01T08:24:58;-0.20;81.30
47546;DHT22;50104;52.002;4.688;2023-03-01T08:29:59;0.00;81.50
47546;DHT22;50104;52.002;4.688;2023-03-01T08:34:59;0.20;81.80
47546;DHT22;50104;52.002;4.688;2023-03-01T08:40:00;0.50;81.90
47546;DHT22;50104;52.002;4.688;2023-03-01T08:45:02;0.70;82.20
47546;DHT22;50104;52.002;4.688;2023-03-01T08:50:04;0.90;82.40
47546;DHT22;50104;52.002;4.688;2023-03-01T08:55:06;1.20;83.00
47546;DHT22;50104;52.002;4.688;2023-03-01T09:00:09;1.40;83.50
47546;DHT22;50104;52.002;4.688;2023-03-01T09:05:11;1.70;84.00
47546;DHT22;50104;52.002;4.688;2023-03-01T09:15:54;2.30;84.80
47546;DHT22;50104;52.002;4.688;2023-03-01T09:21:06;2.60;84.80
47546;DHT22;50104;52.002;4.688;2023-03-01T09:26:12;2.90;84.90
47546;DHT22;50104;52.002;4.688;2023-03-01T09:31:18;3.20;84.90
47546;DHT22;50104;52.002;4.688;2023-03-01T09:36:22;3.50;85.10
47546;DHT22;50104;52.002;4.688;2023-03-01T09:46:47;4.00;85.40
47546;DHT22;50104;52.002;4.688;2023-03-01T09:52:09;4.30;85.50
47546;DHT22;50104;52.002;4.688;2023-03-01T09:57:34;4.70;85.30
47546;DHT22;50104;52.002;4.688;2023-03-01T10:02:43;4.90;85.10
47546;DHT22;50104;52.002;4.688;2023-03-01T10:13:34;5.50;84.40
47546;DHT22;50104;52.002;4.688;2023-03-01T10:18:45;5.80;84.20
47546;DHT22;50104;52.002;4.688;2023-03-01T10:23:50;6.00;84.00
47546;DHT22;50104;52.002;4.688;2023-03-01T10:29:08;6.30;83.70
47546;DHT22;50104;52.002;4.688;2023-03-01T10:34:19;6.50;83.40
47546;DHT22;50104;52.002;4.688;2023-03-01T10:39:23;6.80;83.20
47546;DHT22;50104;52.002;4.688;2023-03-01T10:44:58;7.00;82.90
47546;DHT22;50104;52.002;4.688;2023-03-01T10:50:27;7.30;82.40
47546;DHT22;50104;52.002;4.688;2023-03-01T10:55:35;7.50;82.40
47546;DHT22;50104;52.002;4.688;2023-03-01T11:00:53;7.70;81.90
47546;DHT22;50104;52.002;4.688;2023-03-01T11:11:24;8.10;81.00
47546;DHT22;50104;52.002;4.688;2023-03-01T11:27:04;8.80;80.00
47546;DHT22;50104;52.002;4.688;2023-03-01T11:32:32;9.00;79.70
47546;DHT22;50104;52.002;4.688;2023-03-01T11:49:17;9.60;78.10
47546;DHT22;50104;52.002;4.688;2023-03-01T12:49:27;11.80;73.00
47546;DHT22;50104;52.002;4.688;2023-03-01T12:54:33;12.00;72.30
47546;DHT22;50104;52.002;4.688;2023-03-01T13:00:22;12.10;71.20
47546;DHT22;50104;52.002;4.688;2023-03-01T13:11:17;12.10;71.30
47546;DHT22;50104;52.002;4.688;2023-03-01T13:16:40;12.10;70.20
47546;DHT22;50104;52.002;4.688;2023-03-01T13:21:47;12.10;71.00
47546;DHT22;50104;52.002;4.688;2023-03-01T13:32:25;12.20;70.40
47546;DHT22;50104;52.002;4.688;2023-03-01T13:37:35;12.20;70.70
47546;DHT22;50104;52.002;4.688;2023-03-01T13:42:40;12.30;71.30
47546;DHT22;50104;52.002;4.688;2023-03-01T13:47:45;12.40;71.10
47546;DHT22;50104;52.002;4.688;2023-03-01T13:52:59;12.40;70.50
47546;DHT22;50104;52.002;4.688;2023-03-01T13:58:05;12.50;70.70
47546;DHT22;50104;52.002;4.688;2023-03-01T14:03:18;12.50;70.30
47546;DHT22;50104;52.002;4.688;2023-03-01T14:08:23;12.50;69.70
47546;DHT22;50104;52.002;4.688;2023-03-01T14:24:17;12.50;69.20
47546;DHT22;50104;52.002;4.688;2023-03-01T14:29:34;12.50;69.40
47546;DHT22;50104;52.002;4.688;2023-03-01T14:34:36;12.50;67.30
47546;DHT22;50104;52.002;4.688;2023-03-01T14:39:43;12.50;69.20
47546;DHT22;50104;52.002;4.688;2023-03-01T14:44:46;12.50;69.10
47546;DHT22;50104;52.002;4.688;2023-03-01T14:49:54;12.50;67.20
47546;DHT22;50104;52.002;4.688;2023-03-01T14:54:58;12.40;69.30
47546;DHT22;50104;52.002;4.688;2023-03-01T15:00:01;12.40;69.50
47546;DHT22;50104;52.002;4.688;2023-03-01T15:05:06;12.40;69.60
47546;DHT22;50104;52.002;4.688;2023-03-01T15:10:19;12.40;66.90
47546;DHT22;50104;52.002;4.688;2023-03-01T15:20:29;12.20;66.60
47546;DHT22;50104;52.002;4.688;2023-03-01T15:25:35;12.10;65.40
47546;DHT22;50104;52.002;4.688;2023-03-01T15:30:39;12.00;65.10
47546;DHT22;50104;52.002;4.688;2023-03-01T15:35:43;11.90;64.70
47546;DHT22;50104;52.002;4.688;2023-03-01T15:40:52;11.70;65.60
47546;DHT22;50104;52.002;4.688;2023-03-01T15:45:56;11.60;64.40
47546;DHT22;50104;52.002;4.688;2023-03-01T15:50:59;11.50;64.90
47546;DHT22;50104;52.002;4.688;2023-03-01T15:56:00;11.40;63.30
47546;DHT22;50104;52.002;4.688;2023-03-01T16:01:01;11.40;64.00
47546;DHT22;50104;52.002;4.688;2023-03-01T16:06:02;11.20;63.20
47546;DHT22;50104;52.002;4.688;2023-03-01T16:11:09;11.00;63.20
47546;DHT22;50104;52.002;4.688;2023-03-01T16:16:18;10.90;63.50
47546;DHT22;50104;52.002;4.688;2023-03-01T16:21:24;10.60;63.20
47546;DHT22;50104;52.002;4.688;2023-03-01T16:26:26;10.40;63.30
47546;DHT22;50104;52.002;4.688;2023-03-01T16:31:26;10.20;63.00
47546;DHT22;50104;52.002;4.688;2023-03-01T16:36:29;10.00;63.10
47546;DHT22;50104;52.002;4.688;2023-03-01T16:41:30;9.80;63.60
47546;DHT22;50104;52.002;4.688;2023-03-01T16:46:31;9.60;63.60
47546;DHT22;50104;52.002;4.688;2023-03-01T16:51:32;9.40;64.00
47546;DHT22;50104;52.002;4.688;2023-03-01T16:56:35;9.20;64.30
47546;DHT22;50104;52.002;4.688;2023-03-01T17:01:38;9.00;64.70
47546;DHT22;50104;52.002;4.688;2023-03-01T17:06:41;8.90;64.70
47546;DHT22;50104;52.002;4.688;2023-03-01T17:11:42;8.70;64.90
47546;DHT22;50104;52.002;4.688;2023-03-01T17:16:43;8.60;65.00
47546;DHT22;50104;52.002;4.688;2023-03-01T17:21:45;8.40;65.10
47546;DHT22;50104;52.002;4.688;2023-03-01T17:26:46;8.20;65.60
47546;DHT22;50104;52.002;4.688;2023-03-01T17:31:47;8.00;66.00
47546;DHT22;50104;52.002;4.688;2023-03-01T17:36:47;7.90;66.10
47546;DHT22;50104;52.002;4.688;2023-03-01T17:41:51;7.70;66.40
47546;DHT22;50104;52.002;4.688;2023-03-01T17:46:52;7.50;66.60
47546;DHT22;50104;52.002;4.688;2023-03-01T17:51:53;7.40;67.10
47546;DHT22;50104;52.002;4.688;2023-03-01T17:56:54;7.20;67.30
47546;DHT22;50104;52.002;4.688;2023-03-01T18:01:58;7.10;67.80
47546;DHT22;50104;52.002;4.688;2023-03-01T18:07:00;7.00;68.00
47546;DHT22;50104;52.002;4.688;2023-03-01T18:12:01;6.90;68.40
47546;DHT22;50104;52.002;4.688;2023-03-01T18:17:02;6.70;68.20
47546;DHT22;50104;52.002;4.688;2023-03-01T18:22:07;6.60;68.50
47546;DHT22;50104;52.002;4.688;2023-03-01T18:27:09;6.50;68.80
47546;DHT22;50104;52.002;4.688;2023-03-01T18:32:10;6.40;69.10
47546;DHT22;50104;52.002;4.688;2023-03-01T18:37:11;6.30;69.20
47546;DHT22;50104;52.002;4.688;2023-03-01T18:42:12;6.20;69.50
47546;DHT22;50104;52.002;4.688;2023-03-01T18:47:15;6.10;69.60
47546;DHT22;50104;52.002;4.688;2023-03-01T18:52:16;6.00;69.70
47546;DHT22;50104;52.002;4.688;2023-03-01T18:57:17;5.90;69.70
47546;DHT22;50104;52.002;4.688;2023-03-01T19:02:27;5.80;70.00
47546;DHT22;50104;52.002;4.688;2023-03-01T19:07:29;5.70;70.10
47546;DHT22;50104;52.002;4.688;2023-03-01T19:12:29;5.60;70.20
47546;DHT22;50104;52.002;4.688;2023-03-01T19:17:31;5.50;70.50
47546;DHT22;50104;52.002;4.688;2023-03-01T19:22:32;5.40;70.50
47546;DHT22;50104;52.002;4.688;2023-03-01T19:27:33;5.30;70.60
47546;DHT22;50104;52.002;4.688;2023-03-01T19:32:34;5.20;70.50
47546;DHT22;50104;52.002;4.688;2023-03-01T19:37:36;5.20;70.70
47546;DHT22;50104;52.002;4.688;2023-03-01T19:42:37;5.00;70.60
47546;DHT22;50104;52.002;4.688;2023-03-01T19:47:38;5.00;70.70
47546;DHT22;50104;52.002;4.688;2023-03-01T19:52:39;4.90;70.70
47546;DHT22;50104;52.002;4.688;2023-03-01T19:57:40;4.80;70.90
47546;DHT22;50104;52.002;4.688;2023-03-01T20:02:40;4.70;70.90
47546;DHT22;50104;52.002;4.688;2023-03-01T20:07:41;4.70;71.10
47546;DHT22;50104;52.002;4.688;2023-03-01T20:12:42;4.60;71.20
47546;DHT22;50104;52.002;4.688;2023-03-01T20:17:43;4.50;71.30
47546;DHT22;50104;52.002;4.688;2023-03-01T20:22:44;4.50;71.50
47546;DHT22;50104;52.002;4.688;2023-03-01T20:27:45;4.40;71.60
47546;DHT22;50104;52.002;4.688;2023-03-01T20:32:46;4.30;71.70
47546;DHT22;50104;52.002;4.688;2023-03-01T20:37:51;4.30;71.80
47546;DHT22;50104;52.002;4.688;2023-03-01T20:42:56;4.20;71.90
47546;DHT22;50104;52.002;4.688;2023-03-01T20:47:57;4.20;72.00
47546;DHT22;50104;52.002;4.688;2023-03-01T20:52:58;4.10;72.00
47546;DHT22;50104;52.002;4.688;2023-03-01T20:57:59;4.10;72.10
47546;DHT22;50104;52.002;4.688;2023-03-01T21:03:00;4.00;72.10
47546;DHT22;50104;52.002;4.688;2023-03-01T21:08:03;3.90;72.20
47546;DHT22;50104;52.002;4.688;2023-03-01T21:13:05;3.90;72.30
47546;DHT22;50104;52.002;4.688;2023-03-01T21:18:05;3.80;72.40
47546;DHT22;50104;52.002;4.688;2023-03-01T21:23:06;3.80;72.50
47546;DHT22;50104;52.002;4.688;2023-03-01T21:28:07;3.70;72.50
47546;DHT22;50104;52.002;4.688;2023-03-01T21:33:08;3.70;72.60
47546;DHT22;50104;52.002;4.688;2023-03-01T21:38:09;3.60;72.70
47546;DHT22;50104;52.002;4.688;2023-03-01T21:43:10;3.50;72.80
47546;DHT22;50104;52.002;4.688;2023-03-01T21:48:11;3.50;73.00
47546;DHT22;50104;52.002;4.688;2023-03-01T21:53:12;3.40;73.00
47546;DHT22;50104;52.002;4.688;2023-03-01T21:58:13;3.40;73.10
47546;DHT22;50104;52.002;4.688;2023-03-01T22:03:14;3.30;73.20
47546;DHT22;50104;52.002;4.688;2023-03-01T22:08:16;3.30;73.20
47546;DHT22;50104;52.002;4.688;2023-03-01T22:13:17;3.20;73.40
47546;DHT22;50104;52.002;4.688;2023-03-01T22:18:18;3.20;73.50
47546;DHT22;50104;52.002;4.688;2023-03-01T22:23:19;3.10;73.50
47546;DHT22;50104;52.002;4.688;2023-03-01T22:28:20;3.10;73.70
47546;DHT22;50104;52.002;4.688;2023-03-01T22:33:21;3.10;73.60
47546;DHT22;50104;52.002;4.688;2023-03-01T22:38:22;3.00;73.70
47546;DHT22;50104;52.002;4.688;2023-03-01T22:43:23;3.00;73.80
47546;DHT22;50104;52.002;4.688;2023-03-01T22:48:25;2.90;73.70
47546;DHT22;50104;52.002;4.688;2023-03-01T22:53:26;2.90;73.80
47546;DHT22;50104;52.002;4.688;2023-03-01T22:58:26;2.80;73.80
47546;DHT22;50104;52.002;4.688;2023-03-01T23:03:27;2.80;73.70
47546;DHT22;50104;52.002;4.688;2023-03-01T23:08:28;2.80;74.00
47546;DHT22;50104;52.002;4.688;2023-03-01T23:13:29;2.70;74.30
47546;DHT22;50104;52.002;4.688;2023-03-01T23:18:30;2.70;74.30
47546;DHT22;50104;52.002;4.688;2023-03-01T23:23:31;2.60;74.20
47546;DHT22;50104;52.002;4.688;2023-03-01T23:28:33;2.60;74.70
47546;DHT22;50104;52.002;4.688;2023-03-01T23:33:35;2.60;74.80
47546;DHT22;50104;52.002;4.688;2023-03-01T23:38:39;2.50;75.00
47546;DHT22;50104;52.002;4.688;2023-03-01T23:43:43;2.50;75.20
47546;DHT22;50104;52.002;4.688;2023-03-01T23:48:46;2.50;75.60
47546;DHT22;50104;52.002;4.688;2023-03-01T23:53:50;2.50;75.80
47546;DHT22;50104;52.002;4.688;2023-03-01T23:58:58;2.50;75.80
